sensor_id;sensor_type;location;lat;lon;timestamp;temperature;humidity
20070;DHT22;10195;50.868;4.382;2022-10-16T00:01:21;15.10;99.90
20070;DHT22;10195;50.868;4.382;2022-10-16T00:03:48;15.10;99.90
20070;DHT22;10195;50.868;4.382;2022-10-16T00:06:15;15.20;99.90
20070;DHT22;10195;50.868;4.382;2022-10-16T00:08:41;15.10;99.90
20070;DHT22;10195;50.868;4.382;2022-10-16T00:11:13;15.10;99.90
20070;DHT22;10195;50.868;4.382;2022-10-16T00:13:41;15.00;99.90
20070;DHT22;10195;50.868;4.382;2022-10-16T00:16:07;15.00;99.90
20070;DHT22;10195;50.868;4.382;2022-10-16T00:18:34;15.00;99.90
20070;DHT22;10195;50.868;4.382;2022-10-16T00:21:09;15.10;99.90
20070;DHT22;10195;50.868;4.382;2022-10-16T00:23:35;15.10;99.90
20070;DHT22;10195;50.868;4.382;2022-10-16T00:26:06;15.10;99.90
20070;DHT22;10195;50.868;4.382;2022-10-16T00:28:32;15.00;99.90
20070;DHT22;10195;50.868;4.382;2022-10-16T00:30:58;15.00;99.90
20070;DHT22;10195;50.868;4.382;2022-10-16T00:33:24;15.00;99.90
20070;DHT22;10195;50.868;4.382;2022-10-16T00:35:50;15.00;99.90
20070;DHT22;10195;50.868;4.382;2022-10-16T00:38:16;15.00;99.90
20070;DHT22;10195;50.868;4.382;2022-10-16T00:40:42;15.00;99.90
20070;DHT22;10195;50.868;4.382;2022-10-16T00:46:20;15.00;99.90
20070;DHT22;10195;50.868;4.382;2022-10-16T00:48:53;14.90;99.90
20070;DHT22;10195;50.868;4.382;2022-10-16T00:51:30;14.90;99.90
20070;DHT22;10195;50.868;4.382;2022-10-16T00:53:56;14.90;99.90
20070;DHT22;10195;50.868;4.382;2022-10-16T00:56:22;14.90;99.90
20070;DHT22;10195;50.868;4.382;2022-10-16T00:58:48;14.90;99.90
20070;DHT22;10195;50.868;4.382;2022-10-16T01:01:14;14.80;99.90
20070;DHT22;10195;50.868;4.382;2022-10-16T01:03:40;14.80;99.90
20070;DHT22;10195;50.868;4.382;2022-10-16T01:06:43;14.80;99.90
20070;DHT22;10195;50.868;4.382;2022-10-16T01:12:03;14.80;99.90
20070;DHT22;10195;50.868;4.382;2022-10-16T01:14:42;14.80;99.90
20070;DHT22;10195;50.868;4.382;2022-10-16T01:17:36;14.70;99.90
20070;DHT22;10195;50.868;4.382;2022-10-16T01:20:26;14.80;99.90
20070;DHT22;10195;50.868;4.382;2022-10-16T01:23:36;14.80;99.90
20070;DHT22;10195;50.868;4.382;2022-10-16T01:26:09;14.80;99.90
20070;DHT22;10195;50.868;4.382;2022-10-16T01:31:08;14.70;99.90
20070;DHT22;10195;50.868;4.382;2022-10-16T01:33:42;14.70;99.90
20070;DHT22;10195;50.868;4.382;2022-10-16T01:36:12;14.70;99.90
20070;DHT22;10195;50.868;4.382;2022-10-16T01:38:39;14.60;99.90
20070;DHT22;10195;50.868;4.382;2022-10-16T01:41:28;14.60;99.90
20070;DHT22;10195;50.868;4.382;2022-10-16T01:44:05;14.60;99.90
20070;DHT22;10195;50.868;4.382;2022-10-16T01:46:35;14.60;99.90
20070;DHT22;10195;50.868;4.382;2022-10-16T01:49:03;14.60;99.90
20070;DHT22;10195;50.868;4.382;2022-10-16T01:51:29;14.60;99.90
20070;DHT22;10195;50.868;4.382;2022-10-16T01:53:58;14.60;99.90
20070;DHT22;10195;50.868;4.382;2022-10-16T01:56:25;14.70;99.90
20070;DHT22;10195;50.868;4.382;2022-10-16T01:58:58;14.70;99.90
20070;DHT22;10195;50.868;4.382;2022-10-16T02:01:27;14.70;99.90
20070;DHT22;10195;50.868;4.382;2022-10-16T02:03:57;14.70;99.90
20070;DHT22;10195;50.868;4.382;2022-10-16T02:06:24;14.70;99.90
20070;DHT22;10195;50.868;4.382;2022-10-16T02:08:51;14.70;99.90
20070;DHT22;10195;50.868;4.382;2022-10-16T02:11:16;14.70;99.90
20070;DHT22;10195;50.868;4.382;2022-10-16T02:13:46;14.70;99.90
20070;DHT22;10195;50.868;4.382;2022-10-16T02:16:14;14.60;99.90
20070;DHT22;10195;50.868;4.382;2022-10-16T02:18:41;14.60;99.90
20070;DHT22;10195;50.868;4.382;2022-10-16T02:21:22;14.70;99.90
20070;DHT22;10195;50.868;4.382;2022-10-16T02:27:00;14.60;99.90
20070;DHT22;10195;50.868;4.382;2022-10-16T02:29:28;14.60;99.90
20070;DHT22;10195;50.868;4.382;2022-10-16T02:31:59;14.60;99.90
20070;DHT22;10195;50.868;4.382;2022-10-16T02:34:27;14.60;99.90
20070;DHT22;10195;50.868;4.382;2022-10-16T02:36:55;14.60;99.90
20070;DHT22;10195;50.868;4.382;2022-10-16T02:39:22;14.60;99.90
20070;DHT22;10195;50.868;4.382;2022-10-16T02:41:48;14.60;99.90
20070;DHT22;10195;50.868;4.382;2022-10-16T02:44:23;14.60;99.90
20070;DHT22;10195;50.868;4.382;2022-10-16T02:46:48;14.60;99.90
20070;DHT22;10195;50.868;4.382;2022-10-16T02:49:14;14.60;99.90
20070;DHT22;10195;50.868;4.382;2022-10-16T02:51:40;14.50;99.90
20070;DHT22;10195;50.868;4.382;2022-10-16T02:54:05;14.50;99.90
20070;DHT22;10195;50.868;4.382;2022-10-16T02:56:31;14.50;99.90
20070;DHT22;10195;50.868;4.382;2022-10-16T02:58:57;14.50;99.90
20070;DHT22;10195;50.868;4.382;2022-10-16T03:01:23;14.50;99.90
20070;DHT22;10195;50.868;4.382;2022-10-16T03:03:49;14.50;99.90
20070;DHT22;10195;50.868;4.382;2022-10-16T03:06:14;14.50;99.90
20070;DHT22;10195;50.868;4.382;2022-10-16T03:08:40;14.50;99.90
20070;DHT22;10195;50.868;4.382;2022-10-16T03:11:06;14.50;99.90
20070;DHT22;10195;50.868;4.382;2022-10-16T03:13:32;14.60;99.90
20070;DHT22;10195;50.868;4.382;2022-10-16T03:15:57;14.60;99.90
20070;DHT22;10195;50.868;4.382;2022-10-16T03:18:23;14.50;99.90
20070;DHT22;10195;50.868;4.382;2022-10-16T03:20:48;14.50;99.90
20070;DHT22;10195;50.868;4.382;2022-10-16T03:23:14;14.50;99.90
20070;DHT22;10195;50.868;4.382;2022-10-16T03:25:40;14.50;99.90
20070;DHT22;10195;50.868;4.382;2022-10-16T03:28:05;14.50;99.90
20070;DHT22;10195;50.868;4.382;2022-10-16T03:30:31;14.50;99.90
20070;DHT22;10195;50.868;4.382;2022-10-16T03:32:57;14.50;99.90
20070;DHT22;10195;50.868;4.382;2022-10-16T03:35:23;14.60;99.90
20070;DHT22;10195;50.868;4.382;2022-10-16T03:37:50;14.60;99.90
20070;DHT22;10195;50.868;4.382;2022-10-16T03:40:17;14.50;99.90
20070;DHT22;10195;50.868;4.382;2022-10-16T03:42:43;14.50;99.90
20070;DHT22;10195;50.868;4.382;2022-10-16T03:45:10;14.40;99.90
20070;DHT22;10195;50.868;4.382;2022-10-16T03:47:36;14.50;99.90
20070;DHT22;10195;50.868;4.382;2022-10-16T03:50:02;14.50;99.90
20070;DHT22;10195;50.868;4.382;2022-10-16T03:52:28;14.60;99.90
20070;DHT22;10195;50.868;4.382;2022-10-16T03:54:54;14.60;99.90
20070;DHT22;10195;50.868;4.382;2022-10-16T03:57:19;14.50;99.90
20070;DHT22;10195;50.868;4.382;2022-10-16T03:59:46;14.50;99.90
20070;DHT22;10195;50.868;4.382;2022-10-16T04:02:11;14.40;99.90
20070;DHT22;10195;50.868;4.382;2022-10-16T04:04:37;14.40;99.90
20070;DHT22;10195;50.868;4.382;2022-10-16T04:07:03;14.50;99.90
20070;DHT22;10195;50.868;4.382;2022-10-16T04:09:29;14.50;99.90
20070;DHT22;10195;50.868;4.382;2022-10-16T04:11:54;14.50;99.90
20070;DHT22;10195;50.868;4.382;2022-10-16T04:14:20;14.50;99.90
20070;DHT22;10195;50.868;4.382;2022-10-16T04:16:45;14.40;99.90
20070;DHT22;10195;50.868;4.382;2022-10-16T04:19:11;14.50;99.90
20070;DHT22;10195;50.868;4.382;2022-10-16T04:21:37;14.50;99.90
20070;DHT22;10195;50.868;4.382;2022-10-16T04:24:03;14.50;99.90
20070;DHT22;10195;50.868;4.382;2022-10-16T04:26:29;14.50;99.90
20070;DHT22;10195;50.868;4.382;2022-10-16T04:28:55;14.50;99.90
20070;DHT22;10195;50.868;4.382;2022-10-16T04:31:21;14.40;99.90
20070;DHT22;10195;50.868;4.382;2022-10-16T04:33:46;14.40;99.90
20070;DHT22;10195;50.868;4.382;2022-10-16T04:36:13;14.40;99.90
20070;DHT22;10195;50.868;4.382;2022-10-16T04:38:38;14.40;99.90
20070;DHT22;10195;50.868;4.382;2022-10-16T04:41:06;14.50;99.90
20070;DHT22;10195;50.868;4.382;2022-10-16T04:43:31;14.50;99.90
20070;DHT22;10195;50.868;4.382;2022-10-16T04:45:57;14.50;99.90
20070;DHT22;10195;50.868;4.382;2022-10-16T04:48:23;14.50;99.90
20070;DHT22;10195;50.868;4.382;2022-10-16T04:50:48;14.50;99.90
20070;DHT22;10195;50.868;4.382;2022-10-16T04:53:14;14.40;99.90
20070;DHT22;10195;50.868;4.382;2022-10-16T04:55:41;14.40;99.90
20070;DHT22;10195;50.868;4.382;2022-10-16T04:58:07;14.40;99.90
20070;DHT22;10195;50.868;4.382;2022-10-16T05:00:33;14.30;99.90
20070;DHT22;10195;50.868;4.382;2022-10-16T05:02:59;14.30;99.90
20070;DHT22;10195;50.868;4.382;2022-10-16T05:05:26;14.40;99.90
20070;DHT22;10195;50.868;4.382;2022-10-16T05:07:52;14.40;99.90
20070;DHT22;10195;50.868;4.382;2022-10-16T05:10:18;14.40;99.90
20070;DHT22;10195;50.868;4.382;2022-10-16T05:12:43;14.40;99.90
20070;DHT22;10195;50.868;4.382;2022-10-16T05:15:09;14.30;99.90
20070;DHT22;10195;50.868;4.382;2022-10-16T05:17:35;14.30;99.90
20070;DHT22;10195;50.868;4.382;2022-10-16T05:20:00;14.30;99.90
20070;DHT22;10195;50.868;4.382;2022-10-16T05:22:26;14.30;99.90
20070;DHT22;10195;50.868;4.382;2022-10-16T05:24:52;14.30;99.90
20070;DHT22;10195;50.868;4.382;2022-10-16T05:27:17;14.30;99.90
20070;DHT22;10195;50.868;4.382;2022-10-16T05:29:46;14.20;99.90
20070;DHT22;10195;50.868;4.382;2022-10-16T05:32:16;14.30;99.90
20070;DHT22;10195;50.868;4.382;2022-10-16T05:34:42;14.20;99.90
20070;DHT22;10195;50.868;4.382;2022-10-16T05:37:08;14.10;99.90
20070;DHT22;10195;50.868;4.382;2022-10-16T05:39:40;14.10;99.90
20070;DHT22;10195;50.868;4.382;2022-10-16T05:42:06;14.10;99.90
20070;DHT22;10195;50.868;4.382;2022-10-16T05:44:32;14.10;99.90
20070;DHT22;10195;50.868;4.382;2022-10-16T05:46:58;14.10;99.90
20070;DHT22;10195;50.868;4.382;2022-10-16T05:49:23;14.10;99.90
20070;DHT22;10195;50.868;4.382;2022-10-16T05:51:52;14.10;99.90
20070;DHT22;10195;50.868;4.382;2022-10-16T05:54:18;14.10;99.90
20070;DHT22;10195;50.868;4.382;2022-10-16T05:56:44;14.10;99.90
20070;DHT22;10195;50.868;4.382;2022-10-16T05:59:09;14.10;99.90
20070;DHT22;10195;50.868;4.382;2022-10-16T06:01:35;14.00;99.90
20070;DHT22;10195;50.868;4.382;2022-10-16T06:04:01;14.00;99.90
20070;DHT22;10195;50.868;4.382;2022-10-16T06:06:28;14.00;99.90
20070;DHT22;10195;50.868;4.382;2022-10-16T06:08:56;14.10;99.90
20070;DHT22;10195;50.868;4.382;2022-10-16T06:11:28;14.10;99.90
20070;DHT22;10195;50.868;4.382;2022-10-16T06:13:55;14.20;99.90
20070;DHT22;10195;50.868;4.382;2022-10-16T06:16:26;14.20;99.90
20070;DHT22;10195;50.868;4.382;2022-10-16T06:18:52;14.20;99.90
20070;DHT22;10195;50.868;4.382;2022-10-16T06:21:21;14.30;99.90
20070;DHT22;10195;50.868;4.382;2022-10-16T06:23:47;14.30;99.90
20070;DHT22;10195;50.868;4.382;2022-10-16T06:26:16;14.30;99.90
20070;DHT22;10195;50.868;4.382;2022-10-16T06:28:42;14.40;99.90
20070;DHT22;10195;50.868;4.382;2022-10-16T06:31:09;14.30;99.90
20070;DHT22;10195;50.868;4.382;2022-10-16T06:33:35;14.40;99.90
20070;DHT22;10195;50.868;4.382;2022-10-16T06:36:07;14.30;99.90
20070;DHT22;10195;50.868;4.382;2022-10-16T06:38:33;14.40;99.90
20070;DHT22;10195;50.868;4.382;2022-10-16T06:40:59;14.30;99.90
20070;DHT22;10195;50.868;4.382;2022-10-16T06:43:25;14.30;99.90
20070;DHT22;10195;50.868;4.382;2022-10-16T06:45:54;14.30;99.90
20070;DHT22;10195;50.868;4.382;2022-10-16T06:48:23;14.40;99.90
20070;DHT22;10195;50.868;4.382;2022-10-16T06:50:59;14.50;99.90
20070;DHT22;10195;50.868;4.382;2022-10-16T06:53:28;14.60;99.90
20070;DHT22;10195;50.868;4.382;2022-10-16T06:55:54;14.70;99.90
20070;DHT22;10195;50.868;4.382;2022-10-16T06:58:20;14.80;99.90
20070;DHT22;10195;50.868;4.382;2022-10-16T07:00:45;14.80;99.90
20070;DHT22;10195;50.868;4.382;2022-10-16T07:03:12;14.90;99.90
20070;DHT22;10195;50.868;4.382;2022-10-16T07:05:41;14.90;99.90
20070;DHT22;10195;50.868;4.382;2022-10-16T07:08:08;14.90;99.90
20070;DHT22;10195;50.868;4.382;2022-10-16T07:10:34;14.90;99.90
20070;DHT22;10195;50.868;4.382;2022-10-16T07:12:59;15.00;99.90
20070;DHT22;10195;50.868;4.382;2022-10-16T07:15:26;15.00;99.90
20070;DHT22;10195;50.868;4.382;2022-10-16T07:17:51;15.00;99.90
20070;DHT22;10195;50.868;4.382;2022-10-16T07:20:17;15.10;99.90
20070;DHT22;10195;50.868;4.382;2022-10-16T07:22:43;15.10;99.90
20070;DHT22;10195;50.868;4.382;2022-10-16T07:25:08;15.10;99.90
20070;DHT22;10195;50.868;4.382;2022-10-16T07:27:34;15.30;99.90
20070;DHT22;10195;50.868;4.382;2022-10-16T07:30:00;15.60;99.90
20070;DHT22;10195;50.868;4.382;2022-10-16T07:32:26;16.30;99.90
20070;DHT22;10195;50.868;4.382;2022-10-16T07:34:52;17.00;99.90
20070;DHT22;10195;50.868;4.382;2022-10-16T07:37:18;17.60;99.90
20070;DHT22;10195;50.868;4.382;2022-10-16T07:39:43;18.20;99.90
20070;DHT22;10195;50.868;4.382;2022-10-16T07:42:09;19.10;99.90
20070;DHT22;10195;50.868;4.382;2022-10-16T07:44:35;19.80;99.90
20070;DHT22;10195;50.868;4.382;2022-10-16T07:47:00;20.40;99.90
20070;DHT22;10195;50.868;4.382;2022-10-16T07:49:26;20.70;99.90
20070;DHT22;10195;50.868;4.382;2022-10-16T07:51:51;21.10;99.90
20070;DHT22;10195;50.868;4.382;2022-10-16T07:54:17;21.10;99.90
20070;DHT22;10195;50.868;4.382;2022-10-16T07:56:43;21.90;99.90
20070;DHT22;10195;50.868;4.382;2022-10-16T07:59:08;21.70;99.90
20070;DHT22;10195;50.868;4.382;2022-10-16T08:01:34;21.90;99.90
20070;DHT22;10195;50.868;4.382;2022-10-16T08:04:00;21.60;99.90
20070;DHT22;10195;50.868;4.382;2022-10-16T08:06:25;22.30;99.90
20070;DHT22;10195;50.868;4.382;2022-10-16T08:08:51;22.20;99.90
20070;DHT22;10195;50.868;4.382;2022-10-16T08:11:17;22.20;99.90
20070;DHT22;10195;50.868;4.382;2022-10-16T08:13:42;22.40;99.90
20070;DHT22;10195;50.868;4.382;2022-10-16T08:16:08;22.10;99.90
20070;DHT22;10195;50.868;4.382;2022-10-16T08:18:36;22.00;99.90
20070;DHT22;10195;50.868;4.382;2022-10-16T08:21:02;22.40;99.90
20070;DHT22;10195;50.868;4.382;2022-10-16T08:23:28;22.30;99.90
20070;DHT22;10195;50.868;4.382;2022-10-16T08:25:56;22.10;99.90
20070;DHT22;10195;50.868;4.382;2022-10-16T08:28:26;21.80;99.90
20070;DHT22;10195;50.868;4.382;2022-10-16T08:30:52;22.50;99.90
20070;DHT22;10195;50.868;4.382;2022-10-16T08:33:17;22.40;99.90
20070;DHT22;10195;50.868;4.382;2022-10-16T08:35:50;22.50;99.90
20070;DHT22;10195;50.868;4.382;2022-10-16T08:38:16;22.40;99.90
20070;DHT22;10195;50.868;4.382;2022-10-16T08:40:42;22.70;99.90
20070;DHT22;10195;50.868;4.382;2022-10-16T08:48:47;21.70;99.90
20070;DHT22;10195;50.868;4.382;2022-10-16T08:51:24;22.10;99.90
20070;DHT22;10195;50.868;4.382;2022-10-16T08:53:56;22.30;99.90
20070;DHT22;10195;50.868;4.382;2022-10-16T08:56:23;22.80;99.90
20070;DHT22;10195;50.868;4.382;2022-10-16T08:58:49;22.90;99.90
20070;DHT22;10195;50.868;4.382;2022-10-16T09:01:17;22.70;99.90
20070;DHT22;10195;50.868;4.382;2022-10-16T09:04:16;22.90;99.90
20070;DHT22;10195;50.868;4.382;2022-10-16T09:07:03;23.70;99.90
20070;DHT22;10195;50.868;4.382;2022-10-16T09:09:56;24.30;99.90
20070;DHT22;10195;50.868;4.382;2022-10-16T09:12:52;24.50;99.90
20070;DHT22;10195;50.868;4.382;2022-10-16T09:15:34;25.10;99.90
20070;DHT22;10195;50.868;4.382;2022-10-16T09:20:42;26.10;99.90
20070;DHT22;10195;50.868;4.382;2022-10-16T09:23:18;26.30;99.90
20070;DHT22;10195;50.868;4.382;2022-10-16T09:25:49;26.30;99.90
20070;DHT22;10195;50.868;4.382;2022-10-16T09:28:17;26.00;99.90
20070;DHT22;10195;50.868;4.382;2022-10-16T09:30:44;26.20;99.90
20070;DHT22;10195;50.868;4.382;2022-10-16T09:33:11;26.40;99.90
20070;DHT22;10195;50.868;4.382;2022-10-16T09:35:46;26.70;99.90
20070;DHT22;10195;50.868;4.382;2022-10-16T09:38:31;27.10;99.90
20070;DHT22;10195;50.868;4.382;2022-10-16T09:41:01;27.20;99.90
20070;DHT22;10195;50.868;4.382;2022-10-16T09:43:46;27.50;99.90
20070;DHT22;10195;50.868;4.382;2022-10-16T09:46:31;27.80;99.90
20070;DHT22;10195;50.868;4.382;2022-10-16T09:48:59;26.90;99.90
20070;DHT22;10195;50.868;4.382;2022-10-16T09:51:26;26.00;99.90
20070;DHT22;10195;50.868;4.382;2022-10-16T09:54:19;26.50;99.90
20070;DHT22;10195;50.868;4.382;2022-10-16T09:56:45;26.40;99.90
20070;DHT22;10195;50.868;4.382;2022-10-16T09:59:19;27.00;99.90
20070;DHT22;10195;50.868;4.382;2022-10-16T10:01:48;26.50;99.90
20070;DHT22;10195;50.868;4.382;2022-10-16T10:04:14;26.80;99.90
20070;DHT22;10195;50.868;4.382;2022-10-16T10:06:45;27.00;99.90
20070;DHT22;10195;50.868;4.382;2022-10-16T10:09:30;26.50;99.90
20070;DHT22;10195;50.868;4.382;2022-10-16T10:11:59;27.20;99.90
20070;DHT22;10195;50.868;4.382;2022-10-16T10:14:40;27.10;99.90
20070;DHT22;10195;50.868;4.382;2022-10-16T10:38:54;26.50;99.90
20070;DHT22;10195;50.868;4.382;2022-10-16T10:52:59;24.20;99.90
20070;DHT22;10195;50.868;4.382;2022-10-16T10:55:39;23.80;99.90
20070;DHT22;10195;50.868;4.382;2022-10-16T11:06:32;22.30;99.90
20070;DHT22;10195;50.868;4.382;2022-10-16T11:09:12;22.00;99.90
20070;DHT22;10195;50.868;4.382;2022-10-16T11:11:58;22.30;99.90
20070;DHT22;10195;50.868;4.382;2022-10-16T11:14:39;22.40;99.90
20070;DHT22;10195;50.868;4.382;2022-10-16T11:17:15;22.00;99.90
20070;DHT22;10195;50.868;4.382;2022-10-16T11:19:51;21.70;99.90
20070;DHT22;10195;50.868;4.382;2022-10-16T11:25:12;21.80;99.90
20070;DHT22;10195;50.868;4.382;2022-10-16T11:27:47;22.00;99.90
20070;DHT22;10195;50.868;4.382;2022-10-16T11:30:22;21.30;99.90
20070;DHT22;10195;50.868;4.382;2022-10-16T11:41:28;20.40;99.90
20070;DHT22;10195;50.868;4.382;2022-10-16T11:44:19;20.80;99.90
20070;DHT22;10195;50.868;4.382;2022-10-16T11:47:23;21.20;99.90
20070;DHT22;10195;50.868;4.382;2022-10-16T11:49:41;20.60;99.90
20070;DHT22;10195;50.868;4.382;2022-10-16T11:52:28;20.30;99.90
20070;DHT22;10195;50.868;4.382;2022-10-16T11:57:39;20.10;99.90
20070;DHT22;10195;50.868;4.382;2022-10-16T12:03:20;20.20;99.90
20070;DHT22;10195;50.868;4.382;2022-10-16T12:08:27;20.40;99.90
20070;DHT22;10195;50.868;4.382;2022-10-16T12:10:53;20.50;99.90
20070;DHT22;10195;50.868;4.382;2022-10-16T12:13:39;20.80;99.90
20070;DHT22;10195;50.868;4.382;2022-10-16T12:16:06;21.20;99.90
20070;DHT22;10195;50.868;4.382;2022-10-16T12:18:32;21.30;99.90
20070;DHT22;10195;50.868;4.382;2022-10-16T12:20:58;21.50;99.90
20070;DHT22;10195;50.868;4.382;2022-10-16T12:23:26;21.70;99.90
20070;DHT22;10195;50.868;4.382;2022-10-16T12:25:56;21.60;99.90
20070;DHT22;10195;50.868;4.382;2022-10-16T12:28:27;21.30;99.90
20070;DHT22;10195;50.868;4.382;2022-10-16T12:30:58;21.10;99.90
20070;DHT22;10195;50.868;4.382;2022-10-16T12:33:27;21.00;99.90
20070;DHT22;10195;50.868;4.382;2022-10-16T12:35:53;21.20;99.90
20070;DHT22;10195;50.868;4.382;2022-10-16T12:38:33;21.10;99.90
20070;DHT22;10195;50.868;4.382;2022-10-16T12:41:01;21.40;99.90
20070;DHT22;10195;50.868;4.382;2022-10-16T12:43:47;21.50;99.90
20070;DHT22;10195;50.868;4.382;2022-10-16T12:48:41;21.00;99.90
20070;DHT22;10195;50.868;4.382;2022-10-16T12:54:19;20.80;99.90
20070;DHT22;10195;50.868;4.382;2022-10-16T13:00:17;20.30;99.90
20070;DHT22;10195;50.868;4.382;2022-10-16T13:05:33;20.60;99.90
20070;DHT22;10195;50.868;4.382;2022-10-16T13:11:27;20.20;99.90
20070;DHT22;10195;50.868;4.382;2022-10-16T13:19:41;20.60;99.90
20070;DHT22;10195;50.868;4.382;2022-10-16T13:22:17;20.50;99.90
20070;DHT22;10195;50.868;4.382;2022-10-16T13:30:16;20.70;99.90
20070;DHT22;10195;50.868;4.382;2022-10-16T13:33:03;20.40;99.90
20070;DHT22;10195;50.868;4.382;2022-10-16T13:35:32;20.60;99.90
20070;DHT22;10195;50.868;4.382;2022-10-16T13:38:13;20.90;99.90
20070;DHT22;10195;50.868;4.382;2022-10-16T13:40:57;20.90;99.90
20070;DHT22;10195;50.868;4.382;2022-10-16T13:46:05;21.00;99.90
20070;DHT22;10195;50.868;4.382;2022-10-16T13:48:32;20.90;99.90
20070;DHT22;10195;50.868;4.382;2022-10-16T13:53:34;20.50;99.90
20070;DHT22;10195;50.868;4.382;2022-10-16T13:56:03;20.70;99.90
20070;DHT22;10195;50.868;4.382;2022-10-16T13:58:29;20.80;99.90
20070;DHT22;10195;50.868;4.382;2022-10-16T14:01:00;20.70;99.90
20070;DHT22;10195;50.868;4.382;2022-10-16T14:03:27;20.50;99.90
20070;DHT22;10195;50.868;4.382;2022-10-16T14:05:56;20.20;99.90
20070;DHT22;10195;50.868;4.382;2022-10-16T14:08:25;20.40;99.90
20070;DHT22;10195;50.868;4.382;2022-10-16T14:10:53;20.60;99.90
20070;DHT22;10195;50.868;4.382;2022-10-16T14:13:30;20.70;99.90
20070;DHT22;10195;50.868;4.382;2022-10-16T14:15:57;20.90;99.90
20070;DHT22;10195;50.868;4.382;2022-10-16T14:18:27;20.70;99.90
20070;DHT22;10195;50.868;4.382;2022-10-16T14:20:54;20.60;99.90
20070;DHT22;10195;50.868;4.382;2022-10-16T14:23:23;20.50;99.90
20070;DHT22;10195;50.868;4.382;2022-10-16T14:25:53;20.40;99.90
20070;DHT22;10195;50.868;4.382;2022-10-16T14:28:21;20.20;99.90
20070;DHT22;10195;50.868;4.382;2022-10-16T14:36:03;19.80;99.90
20070;DHT22;10195;50.868;4.382;2022-10-16T14:38:30;19.80;99.90
20070;DHT22;10195;50.868;4.382;2022-10-16T14:40:58;19.80;99.90
20070;DHT22;10195;50.868;4.382;2022-10-16T14:43:34;19.80;99.90
20070;DHT22;10195;50.868;4.382;2022-10-16T14:46:01;19.90;99.90
20070;DHT22;10195;50.868;4.382;2022-10-16T14:48:28;19.90;99.90
20070;DHT22;10195;50.868;4.382;2022-10-16T14:50:53;20.00;99.90
20070;DHT22;10195;50.868;4.382;2022-10-16T14:53:19;20.00;99.90
20070;DHT22;10195;50.868;4.382;2022-10-16T14:55:45;20.10;99.90
20070;DHT22;10195;50.868;4.382;2022-10-16T14:58:16;20.10;99.90
20070;DHT22;10195;50.868;4.382;2022-10-16T15:00:43;20.10;99.90
20070;DHT22;10195;50.868;4.382;2022-10-16T15:03:08;20.10;99.90
20070;DHT22;10195;50.868;4.382;2022-10-16T15:05:34;20.00;99.90
20070;DHT22;10195;50.868;4.382;2022-10-16T15:08:00;20.00;99.90
20070;DHT22;10195;50.868;4.382;2022-10-16T15:10:27;19.90;99.90
20070;DHT22;10195;50.868;4.382;2022-10-16T15:12:54;19.90;99.90
20070;DHT22;10195;50.868;4.382;2022-10-16T15:17:53;19.80;99.90
20070;DHT22;10195;50.868;4.382;2022-10-16T15:20:22;19.80;99.90
20070;DHT22;10195;50.868;4.382;2022-10-16T15:22:47;19.90;99.90
20070;DHT22;10195;50.868;4.382;2022-10-16T15:25:27;20.00;99.90
20070;DHT22;10195;50.868;4.382;2022-10-16T15:27:54;20.10;99.90
20070;DHT22;10195;50.868;4.382;2022-10-16T15:30:20;20.00;99.90
20070;DHT22;10195;50.868;4.382;2022-10-16T15:32:46;20.00;99.90
20070;DHT22;10195;50.868;4.382;2022-10-16T15:35:12;20.00;99.90
20070;DHT22;10195;50.868;4.382;2022-10-16T15:37:37;19.80;99.90
20070;DHT22;10195;50.868;4.382;2022-10-16T15:40:03;19.60;99.90
20070;DHT22;10195;50.868;4.382;2022-10-16T15:42:29;19.60;99.90
20070;DHT22;10195;50.868;4.382;2022-10-16T15:44:54;19.50;99.90
20070;DHT22;10195;50.868;4.382;2022-10-16T15:47:20;19.50;99.90
20070;DHT22;10195;50.868;4.382;2022-10-16T15:49:46;19.40;99.90
20070;DHT22;10195;50.868;4.382;2022-10-16T15:52:11;19.40;99.90
20070;DHT22;10195;50.868;4.382;2022-10-16T15:54:37;19.50;99.90
20070;DHT22;10195;50.868;4.382;2022-10-16T15:57:03;19.70;99.90
20070;DHT22;10195;50.868;4.382;2022-10-16T15:59:28;19.70;99.90
20070;DHT22;10195;50.868;4.382;2022-10-16T16:01:54;19.60;99.90
20070;DHT22;10195;50.868;4.382;2022-10-16T16:04:19;19.40;99.90
20070;DHT22;10195;50.868;4.382;2022-10-16T16:06:45;19.40;99.90
20070;DHT22;10195;50.868;4.382;2022-10-16T16:09:12;19.30;99.90
20070;DHT22;10195;50.868;4.382;2022-10-16T16:11:38;19.40;99.90
20070;DHT22;10195;50.868;4.382;2022-10-16T16:14:09;19.20;99.90
20070;DHT22;10195;50.868;4.382;2022-10-16T16:16:36;19.10;99.90
20070;DHT22;10195;50.868;4.382;2022-10-16T16:19:04;18.80;99.90
20070;DHT22;10195;50.868;4.382;2022-10-16T16:21:32;18.80;99.90
20070;DHT22;10195;50.868;4.382;2022-10-16T16:23:57;18.90;99.90
20070;DHT22;10195;50.868;4.382;2022-10-16T16:26:25;19.10;99.90
20070;DHT22;10195;50.868;4.382;2022-10-16T16:28:52;19.10;99.90
20070;DHT22;10195;50.868;4.382;2022-10-16T16:31:18;19.00;99.90
20070;DHT22;10195;50.868;4.382;2022-10-16T16:33:44;19.00;99.90
20070;DHT22;10195;50.868;4.382;2022-10-16T16:36:10;19.00;99.90
20070;DHT22;10195;50.868;4.382;2022-10-16T16:38:36;19.00;99.90
20070;DHT22;10195;50.868;4.382;2022-10-16T16:41:17;18.80;99.90
20070;DHT22;10195;50.868;4.382;2022-10-16T16:43:43;18.80;99.90
20070;DHT22;10195;50.868;4.382;2022-10-16T16:46:09;18.80;99.90
20070;DHT22;10195;50.868;4.382;2022-10-16T16:48:35;18.80;99.90
20070;DHT22;10195;50.868;4.382;2022-10-16T16:51:06;18.80;99.90
20070;DHT22;10195;50.868;4.382;2022-10-16T16:53:34;18.80;99.90
20070;DHT22;10195;50.868;4.382;2022-10-16T16:56:05;18.80;99.90
20070;DHT22;10195;50.868;4.382;2022-10-16T16:58:31;18.90;99.90
20070;DHT22;10195;50.868;4.382;2022-10-16T17:00:57;18.80;99.90
20070;DHT22;10195;50.868;4.382;2022-10-16T17:03:30;18.80;99.90
20070;DHT22;10195;50.868;4.382;2022-10-16T17:06:03;18.90;99.90
20070;DHT22;10195;50.868;4.382;2022-10-16T17:08:30;18.80;99.90
20070;DHT22;10195;50.868;4.382;2022-10-16T17:10:56;18.60;99.90
20070;DHT22;10195;50.868;4.382;2022-10-16T17:13:30;18.40;99.90
20070;DHT22;10195;50.868;4.382;2022-10-16T17:15:57;18.60;99.90
20070;DHT22;10195;50.868;4.382;2022-10-16T17:18:23;18.50;99.90
20070;DHT22;10195;50.868;4.382;2022-10-16T17:20:50;18.40;99.90
20070;DHT22;10195;50.868;4.382;2022-10-16T17:23:17;18.00;99.90
20070;DHT22;10195;50.868;4.382;2022-10-16T17:25:44;17.80;99.90
20070;DHT22;10195;50.868;4.382;2022-10-16T17:28:11;17.60;99.90
20070;DHT22;10195;50.868;4.382;2022-10-16T17:30:38;17.70;99.90
20070;DHT22;10195;50.868;4.382;2022-10-16T17:33:05;17.80;99.90
20070;DHT22;10195;50.868;4.382;2022-10-16T17:35:42;17.80;99.90
20070;DHT22;10195;50.868;4.382;2022-10-16T17:38:08;17.70;99.90
20070;DHT22;10195;50.868;4.382;2022-10-16T17:40:34;17.50;99.90
20070;DHT22;10195;50.868;4.382;2022-10-16T17:43:01;17.30;99.90